Time;durP1;ratioP1;P1;durP2;ratioP2;P2;SDS_P1;SDS_P2;PMS_P1;PMS_P2;Temp;Humidity;BMP_temperature;BMP_pressure;BME280_temperature;BME280_humidity;BME280_pressure;Samples;Min_cycle;Max_cycle;Signal;HPM_P1;HPM_P2
2021/01/06 00:00:52;;;;;;;20.48;10.48;;;;;;;2.41;88.97;100139.23;1712998;83;25862;-82
2021/01/06 00:03:23;;;;;;;16.50;9.95;;;;;;;2.42;88.96;100136.43;1652078;85;25832;-81
2021/01/06 00:05:58;;;;;;;14.60;9.33;;;;;;;2.44;89.01;100134.98;1697396;83;25724;-81
2021/01/06 00:08:27;;;;;;;13.72;8.65;;;;;;;2.47;89.10;100132.88;1684780;82;27357;-80
2021/01/06 00:10:57;;;;;;;13.58;8.88;;;;;;;2.50;88.92;100139.68;1675376;83;26518;-81
2021/01/06 00:13:26;;;;;;;13.88;8.75;;;;;;;2.47;88.88;100137.31;1680095;83;25774;-81
2021/01/06 00:15:55;;;;;;;12.68;9.23;;;;;;;2.47;88.99;100144.77;1681753;83;26412;-81
2021/01/06 00:18:24;;;;;;;18.20;10.93;;;;;;;2.50;89.00;100151.09;1663658;83;26390;-81
2021/01/06 00:20:52;;;;;;;13.18;7.95;;;;;;;2.49;88.96;100143.29;1665203;83;27621;-80
2021/01/06 00:23:20;;;;;;;16.82;10.78;;;;;;;2.46;88.79;100144.41;1679051;83;25796;-80
2021/01/06 00:25:48;;;;;;;13.62;9.23;;;;;;;2.46;88.88;100148.88;1660603;84;26048;-80
2021/01/06 00:28:18;;;;;;;22.17;11.88;;;;;;;2.45;88.90;100136.63;1680543;83;25922;-80
2021/01/06 00:30:54;;;;;;;23.65;11.48;;;;;;;2.44;88.87;100141.59;1697391;82;26101;-81
2021/01/06 00:33:32;;;;;;;29.07;13.72;;;;;;;2.42;88.84;100143.55;1678236;83;27541;-81
2021/01/06 00:36:09;;;;;;;19.73;10.95;;;;;;;2.38;88.88;100145.63;1657054;83;25715;-80
2021/01/06 00:38:38;;;;;;;19.80;12.03;;;;;;;2.35;88.87;100141.47;1683379;83;25792;-81
2021/01/06 00:41:06;;;;;;;19.10;11.35;;;;;;;2.37;88.98;100138.70;1653889;84;25958;-80
2021/01/06 00:43:34;;;;;;;20.75;11.90;;;;;;;2.34;88.87;100147.75;1677207;84;26188;-80
2021/01/06 00:46:02;;;;;;;19.60;12.03;;;;;;;2.34;88.88;100145.58;1683766;83;27547;-81
2021/01/06 00:48:29;;;;;;;17.12;10.65;;;;;;;2.32;88.76;100152.34;1709645;83;26510;-81
2021/01/06 00:50:58;;;;;;;15.55;10.10;;;;;;;2.30;88.76;100152.14;1671759;83;26060;-80
2021/01/06 00:53:27;;;;;;;18.15;10.65;;;;;;;2.27;88.76;100150.61;1679561;83;26131;-80
2021/01/06 00:55:57;;;;;;;15.85;9.93;;;;;;;2.29;88.85;100151.30;1707996;83;26508;-81
2021/01/06 00:58:24;;;;;;;15.88;9.80;;;;;;;2.28;88.82;100155.42;1658251;84;27425;-80
2021/01/06 01:00:53;;;;;;;16.32;10.10;;;;;;;2.26;88.80;100156.89;1660572;83;25898;-80
2021/01/06 01:03:21;;;;;;;14.73;10.13;;;;;;;2.26;88.79;100152.93;1677420;84;25917;-80
2021/01/06 01:05:50;;;;;;;13.93;9.05;;;;;;;2.26;88.83;100166.14;1674955;83;26438;-81
2021/01/06 01:08:17;;;;;;;13.32;8.98;;;;;;;2.26;88.78;100163.50;1674769;83;25970;-81
2021/01/06 01:10:52;;;;;;;14.70;8.95;;;;;;;2.28;88.82;100159.38;1662216;82;27577;-80
2021/01/06 01:13:23;;;;;;;14.45;8.90;;;;;;;2.28;88.86;100156.73;1653458;83;25866;-81
2021/01/06 01:15:55;;;;;;;15.23;9.65;;;;;;;2.28;88.77;100156.73;1678010;84;25860;-80
2021/01/06 01:18:26;;;;;;;14.78;9.33;;;;;;;2.27;88.74;100158.55;1699780;81;26171;-80
2021/01/06 01:20:57;;;;;;;14.87;9.43;;;;;;;2.26;88.78;100164.82;1716500;81;25896;-81
2021/01/06 01:23:27;;;;;;;16.45;9.30;;;;;;;2.28;88.88;100165.51;1677772;84;27635;-81
2021/01/06 01:25:56;;;;;;;14.33;9.40;;;;;;;2.27;88.71;100163.83;1692605;83;26351;-81
2021/01/06 01:28:25;;;;;;;13.50;9.08;;;;;;;2.27;88.70;100159.02;1670050;83;25950;-80
2021/01/06 01:30:54;;;;;;;13.98;9.13;;;;;;;2.25;88.64;100159.17;1686321;82;25923;-81
2021/01/06 01:33:25;;;;;;;13.20;9.28;;;;;;;2.25;88.62;100155.70;1651602;83;25877;-81
2021/01/06 01:35:53;;;;;;;15.35;9.18;;;;;;;2.24;88.64;100162.81;1682462;83;27777;-81
2021/01/06 01:38:24;;;;;;;15.63;9.60;;;;;;;2.23;88.65;100158.97;1691649;83;25766;-80
2021/01/06 01:41:06;;;;;;;13.68;8.80;;;;;;;2.24;88.69;100156.20;1677177;84;25384;-82
2021/01/06 01:43:35;;;;;;;14.58;9.63;;;;;;;2.25;88.62;100157.86;1682812;83;26491;-81
2021/01/06 01:46:08;;;;;;;14.87;10.03;;;;;;;2.23;88.60;100162.94;1696603;83;25754;-81
2021/01/06 01:48:52;;;;;;;18.48;10.48;;;;;;;2.22;88.52;100165.25;1668281;83;28341;-80
2021/01/06 01:51:36;;;;;;;12.85;9.40;;;;;;;2.20;88.69;100165.89;1684880;83;25983;-80
2021/01/06 01:54:15;;;;;;;14.65;10.58;;;;;;;2.22;88.73;100170.02;1696022;83;26528;-81
2021/01/06 01:57:05;;;;;;;16.82;11.73;;;;;;;2.27;88.79;100171.75;1805721;77;29515;-80
2021/01/06 01:59:55;;;;;;;15.83;10.50;;;;;;;2.45;88.34;100177.13;1803741;78;26114;-80
2021/01/06 02:02:34;;;;;;;15.37;10.97;;;;;;;2.42;88.34;100175.27;1762102;80;27660;-80
2021/01/06 02:05:06;;;;;;;19.02;10.82;;;;;;;2.38;88.35;100181.31;1771865;80;25928;-81
2021/01/06 02:07:39;;;;;;;18.92;12.95;;;;;;;2.29;88.19;100183.02;1778805;78;26268;-81
2021/01/06 02:10:20;;;;;;;22.40;13.35;;;;;;;2.22;88.28;100187.70;1799708;78;25976;-81
2021/01/06 02:13:05;;;;;;;18.60;12.20;;;;;;;2.22;88.60;100189.03;1793641;78;25839;-80
2021/01/06 02:16:07;;;;;;;17.23;11.00;;;;;;;2.22;88.56;100190.35;1771482;78;27615;-80
2021/01/06 02:18:35;;;;;;;17.45;11.55;;;;;;;2.19;88.57;100192.79;1793887;78;25882;-81
2021/01/06 02:21:15;;;;;;;17.07;12.20;;;;;;;2.18;88.65;100189.78;1807029;78;25767;-80
2021/01/06 02:23:47;;;;;;;18.70;11.60;;;;;;;2.19;88.65;100187.50;1782734;78;26202;-80
2021/01/06 02:26:15;;;;;;;18.40;10.75;;;;;;;2.16;88.63;100183.81;1788469;78;26494;-81
2021/01/06 02:28:42;;;;;;;17.48;11.22;;;;;;;2.14;88.68;100184.92;1751336;79;27620;-80
2021/01/06 02:31:10;;;;;;;20.60;12.03;;;;;;;2.16;88.82;100185.13;1768242;78;26311;-81
2021/01/06 02:33:39;;;;;;;17.32;11.03;;;;;;;2.17;88.75;100187.30;1763909;78;25843;-81
2021/01/06 02:36:07;;;;;;;16.48;11.75;;;;;;;2.17;88.87;100188.14;1797259;78;26174;-81
2021/01/06 02:38:34;;;;;;;18.17;12.20;;;;;;;2.20;88.98;100193.11;1773869;78;25883;-81
2021/01/06 02:41:03;;;;;;;20.57;12.85;;;;;;;2.23;88.91;100186.23;1739336;81;27688;-80
2021/01/06 02:43:30;;;;;;;17.48;11.12;;;;;;;2.25;88.89;100191.37;1764346;78;25825;-81
2021/01/06 02:45:58;;;;;;;23.15;12.95;;;;;;;2.23;88.85;100190.68;1793625;78;25794;-81
2021/01/06 02:48:27;;;;;;;19.60;13.05;;;;;;;2.26;88.99;100181.16;1746114;78;26113;-80
2021/01/06 02:51:02;;;;;;;21.20;12.53;;;;;;;2.28;88.94;100180.04;1752468;78;25438;-80
2021/01/06 02:53:38;;;;;;;19.30;13.28;;;;;;;2.28;88.90;100177.88;1778787;78;28342;-80
2021/01/06 02:56:06;;;;;;;14.68;11.18;;;;;;;2.27;88.91;100182.33;1788425;78;25994;-80
2021/01/06 02:58:35;;;;;;;19.90;13.18;;;;;;;2.31;89.00;100178.89;1745170;78;25867;-81
2021/01/06 03:01:02;;;;;;;20.08;12.55;;;;;;;2.32;89.09;100180.09;1809500;78;26059;-80
2021/01/06 03:03:33;;;;;;;19.98;12.75;;;;;;;2.39;89.16;100183.48;1759757;80;25924;-81
2021/01/06 03:06:29;;;;;;;16.37;11.45;;;;;;;2.43;89.11;100184.84;1794309;78;27533;-81
2021/01/06 03:08:56;;;;;;;18.80;11.78;;;;;;;2.44;89.02;100181.24;1792877;78;25439;-81
2021/01/06 03:11:24;;;;;;;19.90;12.70;;;;;;;2.47;89.05;100182.25;1749092;79;26267;-80
2021/01/06 03:13:51;;;;;;;17.85;12.43;;;;;;;2.49;89.03;100181.62;1771649;78;25407;-80
2021/01/06 03:16:19;;;;;;;19.87;12.75;;;;;;;2.52;88.91;100183.98;1803392;78;25960;-80
2021/01/06 03:18:48;;;;;;;23.25;15.13;;;;;;;2.50;88.88;100182.81;1698850;81;28526;-80
2021/01/06 03:21:16;;;;;;;23.75;12.88;;;;;;;2.50;88.92;100185.94;1745390;80;25956;-80
2021/01/06 03:23:48;;;;;;;24.52;14.78;;;;;;;2.52;88.99;100184.83;1754249;81;25850;-81
2021/01/06 03:26:18;;;;;;;25.37;13.65;;;;;;;2.52;88.95;100182.18;1755546;80;25790;-81
2021/01/06 03:28:47;;;;;;;;;;;;;;;2.51;88.88;100179.66;1708916;81;26506;-80
2021/01/06 03:31:27;;;;;;;22.62;13.50;;;;;;;2.53;88.92;100187.80;1713611;81;28603;-80
2021/01/06 03:34:02;;;;;;;24.40;14.23;;;;;;;2.52;88.99;100180.02;1728239;81;25889;-81
2021/01/06 03:36:35;;;;;;;26.30;14.60;;;;;;;2.54;88.98;100189.95;1735219;81;25781;-81
2021/01/06 03:39:07;;;;;;;22.42;13.88;;;;;;;2.55;89.03;100186.31;1726383;82;25874;-81
2021/01/06 03:41:36;;;;;;;27.20;14.43;;;;;;;2.57;88.98;100188.33;1696777;82;25900;-81
2021/01/06 03:44:10;;;;;;;26.12;14.20;;;;;;;2.56;88.88;100188.84;1725588;81;27542;-81
2021/01/06 03:47:05;;;;;;;25.65;13.90;;;;;;;2.56;88.89;100192.80;1715081;82;26219;-81
2021/01/06 03:49:53;;;;;;;22.22;13.28;;;;;;;2.53;88.82;100189.59;1752892;81;25886;-81
2021/01/06 03:52:46;;;;;;;23.77;14.05;;;;;;;2.53;88.95;100179.02;1720357;82;26498;-81
2021/01/06 03:55:44;;;;;;;24.43;13.45;;;;;;;2.56;89.01;100181.39;1719149;82;25920;-82
2021/01/06 03:58:35;;;;;;;24.07;14.43;;;;;;;2.56;88.98;100179.59;1717581;83;27707;-81
2021/01/06 04:01:30;;;;;;;;;;;;;;;2.61;89.08;100180.47;1723741;82;26000;-81
2021/01/06 04:04:17;;;;;;;22.17;13.60;;;;;;;2.63;88.98;100182.48;1722234;82;26088;-79
2021/01/06 04:06:49;;;;;;;22.50;13.65;;;;;;;2.66;89.15;100188.78;1706119;82;25789;-81
2021/01/06 04:09:28;;;;;;;23.62;13.45;;;;;;;2.69;89.06;100185.38;1695578;83;26435;-80
2021/01/06 04:12:15;;;;;;;25.07;16.13;;;;;;;2.79;88.97;100192.76;1824573;77;38213;-81
2021/01/06 04:14:43;;;;;;;23.77;14.60;;;;;;;2.95;88.43;100199.55;1791286;78;26193;-81
2021/01/06 04:17:31;;;;;;;25.40;15.38;;;;;;;2.94;88.51;100198.38;1791053;79;28079;-80
2021/01/06 04:20:10;;;;;;;24.55;14.53;;;;;;;2.95;88.56;100192.94;1791122;79;25882;-80
2021/01/06 04:22:48;;;;;;;25.62;16.60;;;;;;;2.96;88.51;100189.81;1774344;79;25984;-80
2021/01/06 04:25:29;;;;;;;28.95;15.80;;;;;;;2.96;88.54;100187.16;1746720;79;26313;-80
2021/01/06 04:28:07;;;;;;;25.90;15.08;;;;;;;2.97;88.47;100185.68;1756570;79;25810;-80
2021/01/06 04:30:43;;;;;;;26.12;15.28;;;;;;;2.96;88.51;100188.48;1774789;79;28488;-81
2021/01/06 04:33:22;;;;;;;24.87;14.18;;;;;;;2.96;88.47;100189.33;1750879;79;25733;-81
2021/01/06 04:36:01;;;;;;;22.75;14.13;;;;;;;3.02;88.42;100190.05;1763063;79;26450;-80
2021/01/06 04:38:33;;;;;;;24.10;13.62;;;;;;;2.97;88.46;100194.94;1643299;85;25447;-80
2021/01/06 04:41:40;;;;;;;25.35;13.95;;;;;;;3.01;88.54;100190.20;1626723;86;27107;-80
2021/01/06 04:44:48;;;;;;;25.90;14.70;;;;;;;3.01;88.42;100197.66;1653106;86;26416;-80
2021/01/06 04:47:44;;;;;;;23.00;14.85;;;;;;;3.01;88.41;100197.66;1638231;85;25818;-80
2021/01/06 04:50:43;;;;;;;25.20;14.15;;;;;;;3.00;88.36;100205.24;1629325;86;25933;-80
2021/01/06 04:53:39;;;;;;;25.10;14.95;;;;;;;3.00;88.32;100203.08;1642044;85;25965;-80
2021/01/06 04:56:24;;;;;;;26.93;14.98;;;;;;;2.99;88.36;100205.40;1655085;85;28503;-81
2021/01/06 04:59:11;;;;;;;23.60;14.78;;;;;;;2.98;88.40;100209.02;1623328;86;25963;-80
2021/01/06 05:02:20;;;;;;;26.90;15.50;;;;;;;2.99;88.33;100207.53;1652855;85;25830;-80
2021/01/06 05:05:30;;;;;;;26.00;16.00;;;;;;;2.98;88.37;100213.81;1629897;85;25816;-80
2021/01/06 05:08:17;;;;;;;26.55;16.12;;;;;;;2.97;88.26;100217.95;1658831;85;26507;-80
2021/01/06 05:10:53;;;;;;;29.32;16.45;;;;;;;2.97;88.33;100218.75;1626428;85;27763;-80
2021/01/06 05:13:38;;;;;;;29.20;17.07;;;;;;;2.97;88.28;100222.72;1632466;85;26145;-80
2021/01/06 05:16:36;;;;;;;27.95;17.05;;;;;;;2.97;88.30;100222.72;1627441;85;25799;-80
2021/01/06 05:19:07;;;;;;;27.95;16.15;;;;;;;2.98;88.29;100225.72;1656918;85;26171;-79
2021/01/06 05:21:35;;;;;;;26.17;16.05;;;;;;;3.00;88.33;100222.92;1630953;85;25837;-80
2021/01/06 05:24:23;;;;;;;29.85;17.73;;;;;;;3.02;88.36;100219.63;1623078;85;27551;-79
2021/01/06 05:27:16;;;;;;;32.78;17.77;;;;;;;3.04;88.26;100217.67;1654669;85;26018;-80
2021/01/06 05:29:48;;;;;;;35.28;18.60;;;;;;;2.99;87.99;100222.08;1653006;85;25753;-82
2021/01/06 05:32:24;;;;;;;46.28;27.45;;;;;;;3.02;88.20;100227.09;1626372;87;25906;-80
2021/01/06 05:35:01;;;;;;;37.70;21.30;;;;;;;3.04;88.14;100228.26;1639436;85;25969;-80
2021/01/06 05:37:29;;;;;;;36.30;20.43;;;;;;;3.06;88.12;100232.91;1636347;84;27358;-80
2021/01/06 05:40:04;;;;;;;35.15;19.92;;;;;;;3.08;88.06;100236.23;1654500;85;25908;-80
2021/01/06 05:43:00;;;;;;;35.30;21.35;;;;;;;3.07;87.98;100230.63;1650887;85;26529;-80
2021/01/06 05:45:53;;;;;;;35.15;20.57;;;;;;;3.08;87.96;100229.63;1652667;85;26070;-81
2021/01/06 05:48:32;;;;;;;37.90;22.22;;;;;;;3.07;87.93;100237.23;1600623;85;25921;-80
2021/01/06 05:51:10;;;;;;;37.20;20.77;;;;;;;3.08;87.81;100240.20;1622966;85;27692;-80
2021/01/06 05:54:04;;;;;;;37.55;23.02;;;;;;;3.07;87.90;100236.75;1637075;86;25425;-82
2021/01/06 05:57:06;;;;;;;35.88;20.80;;;;;;;3.05;87.79;100241.36;1622790;87;26169;-81
2021/01/06 05:59:51;;;;;;;40.17;23.20;;;;;;;3.04;87.73;100240.16;1634837;87;25897;-82
2021/01/06 06:02:59;;;;;;;38.42;22.70;;;;;;;3.02;87.77;100236.83;1655346;84;26136;-82
2021/01/06 06:05:41;;;;;;;33.13;21.23;;;;;;;3.03;87.72;100245.13;1657028;84;27559;-82
2021/01/06 06:08:34;;;;;;;40.08;22.75;;;;;;;2.99;87.58;100245.89;1656780;85;25942;-82
2021/01/06 06:11:59;;;;;;;38.35;21.23;;;;;;;2.99;87.70;100251.18;1663874;84;26440;-81
2021/01/06 06:15:16;;;;;;;37.75;21.15;;;;;;;2.97;87.58;100249.69;1653404;84;26144;-81
2021/01/06 06:18:14;;;;;;;41.40;24.15;;;;;;;2.94;87.69;100246.00;1619768;87;25896;-81
2021/01/06 06:21:02;;;;;;;40.40;23.57;;;;;;;2.92;87.69;100244.84;1654681;84;28310;-80
2021/01/06 06:23:57;;;;;;;44.80;23.47;;;;;;;2.93;87.72;100244.35;1668326;85;25731;-81
2021/01/06 06:27:02;;;;;;;44.70;24.05;;;;;;;2.92;87.62;100239.55;1666512;84;26378;-82
2021/01/06 06:29:43;;;;;;;45.48;24.67;;;;;;;2.92;87.63;100252.77;1662173;83;26017;-81
2021/01/06 06:32:32;;;;;;;47.80;26.25;;;;;;;2.95;87.63;100253.78;1840363;77;25319;-81
2021/01/06 06:35:24;;;;;;;41.15;22.90;;;;;;;2.90;87.75;100261.83;1808078;78;25853;-81
2021/01/06 06:38:07;;;;;;;43.60;23.10;;;;;;;2.89;87.63;100258.82;1729446;80;28161;-82
2021/01/06 06:40:57;;;;;;;45.23;24.25;;;;;;;2.89;87.74;100262.31;1714601;82;25922;-82
2021/01/06 06:43:33;;;;;;;42.53;25.48;;;;;;;2.90;87.81;100265.31;1732093;81;25570;-82
2021/01/06 06:46:12;;;;;;;41.88;21.15;;;;;;;2.90;87.64;100266.63;1698144;83;25903;-81
2021/01/06 06:48:50;;;;;;;39.75;22.25;;;;;;;2.88;87.47;100278.33;1688812;82;25872;-82
2021/01/06 06:51:35;;;;;;;45.00;22.42;;;;;;;2.87;87.54;100274.01;1709907;82;28292;-81
2021/01/06 06:54:32;;;;;;;47.10;24.52;;;;;;;2.86;87.51;100274.52;1717657;82;26417;-82
2021/01/06 06:57:26;;;;;;;42.55;21.17;;;;;;;2.86;87.51;100277.17;1683949;83;25891;-81
2021/01/06 07:00:21;;;;;;;41.48;23.75;;;;;;;2.83;87.40;100279.25;1703052;81;25988;-82
2021/01/06 07:03:01;;;;;;;41.28;22.62;;;;;;;2.83;87.47;100288.02;1694252;82;26452;-82
2021/01/06 07:05:51;;;;;;;45.65;24.18;;;;;;;2.83;87.43;100285.38;1710496;83;28497;-81
2021/01/06 07:08:25;;;;;;;46.18;23.25;;;;;;;2.82;87.47;100280.24;1705595;81;26133;-81
2021/01/06 07:11:05;;;;;;;44.13;24.55;;;;;;;2.83;87.58;100285.86;1688846;83;25942;-82
2021/01/06 07:13:34;;;;;;;60.52;33.70;;;;;;;2.86;87.64;100285.10;1732363;81;26118;-81
2021/01/06 07:16:18;;;;;;;55.28;30.15;;;;;;;2.91;87.69;100288.61;1719087;81;25905;-81
2021/01/06 07:18:56;;;;;;;47.65;25.25;;;;;;;2.98;87.53;100289.70;1787376;79;26462;-81
2021/01/06 07:21:29;;;;;;;47.53;24.60;;;;;;;2.91;87.44;100289.93;1717687;80;25909;-81
2021/01/06 07:24:12;;;;;;;40.65;23.05;;;;;;;2.90;87.48;100286.47;1734072;81;27231;-81
2021/01/06 07:26:51;;;;;;;45.30;25.05;;;;;;;2.90;87.47;100286.95;1722455;80;25895;-82
2021/01/06 07:29:21;;;;;;;42.78;23.60;;;;;;;2.90;87.48;100293.57;1736894;81;26429;-81
2021/01/06 07:32:14;;;;;;;40.35;21.82;;;;;;;2.90;87.49;100296.22;1749370;81;25874;-81
2021/01/06 07:34:50;;;;;;;45.58;23.10;;;;;;;2.90;87.46;100292.25;1722629;80;25950;-81
2021/01/06 07:37:38;;;;;;;42.78;23.32;;;;;;;2.93;87.59;100297.27;1756958;80;28261;-81
2021/01/06 07:40:26;;;;;;;42.75;23.05;;;;;;;2.96;87.52;100300.92;1678752;83;25886;-82
2021/01/06 07:43:26;;;;;;;38.58;21.30;;;;;;;2.97;87.60;100304.73;1687650;83;26746;-81
2021/01/06 07:46:05;;;;;;;38.90;22.55;;;;;;;2.97;87.50;100304.73;1722104;81;25880;-81
2021/01/06 07:48:44;;;;;;;43.28;23.47;;;;;;;2.98;87.56;100310.38;1691255;84;25825;-82
2021/01/06 07:51:30;;;;;;;46.55;24.30;;;;;;;3.00;87.47;100310.23;1702287;83;27752;-82
2021/01/06 07:54:15;;;;;;;47.13;23.47;;;;;;;2.99;87.47;100314.67;1693004;81;25871;-82
2021/01/06 07:57:07;;;;;;;44.42;24.67;;;;;;;3.02;87.49;100327.63;1693375;82;25881;-81
2021/01/06 07:59:58;;;;;;;52.80;25.23;;;;;;;3.01;87.38;100328.63;1684569;83;25879;-80
2021/01/06 08:02:51;;;;;;;47.80;25.43;;;;;;;3.00;87.39;100333.56;1700141;83;25765;-80
2021/01/06 08:05:34;;;;;;;49.50;24.72;;;;;;;3.00;87.37;100328.75;1676071;82;26332;-81
2021/01/06 08:08:12;;;;;;;42.00;22.73;;;;;;;2.97;87.42;100335.16;1687630;82;26545;-81
2021/01/06 08:10:45;;;;;;;43.80;22.52;;;;;;;2.95;87.27;100331.02;1682779;84;25806;-82
2021/01/06 08:13:30;;;;;;;42.65;22.15;;;;;;;2.92;87.28;100334.78;1672167;82;27035;-82
2021/01/06 08:16:18;;;;;;;41.95;22.77;;;;;;;2.88;87.26;100336.53;1686521;82;26140;-81
2021/01/06 08:19:15;;;;;;;43.50;23.85;;;;;;;2.86;87.36;100335.36;1679044;84;27563;-81
2021/01/06 08:22:22;;;;;;;48.05;23.87;;;;;;;2.86;87.39;100332.72;1685262;83;26164;-81
2021/01/06 08:25:07;;;;;;;52.83;25.17;;;;;;;2.85;87.47;100336.33;1658318;84;25937;-81
2021/01/06 08:30:30;;;;;;;50.10;24.25;;;;;;;2.94;87.49;100331.98;1818354;77;25825;-80
2021/01/06 08:33:07;;;;;;;55.08;26.10;;;;;;;2.90;87.55;100334.09;1764906;78;25782;-81
2021/01/06 08:35:41;;;;;;;54.80;26.55;;;;;;;2.93;87.56;100332.46;1766482;80;27488;-81
2021/01/06 08:38:33;;;;;;;57.45;28.12;;;;;;;2.93;87.54;100332.46;1732635;81;26054;-81
2021/01/06 08:41:22;;;;;;;52.60;27.42;;;;;;;2.94;87.52;100334.14;1704815;81;25414;-81
2021/01/06 08:43:50;;;;;;;46.53;26.52;;;;;;;2.95;87.48;100331.83;1706451;81;26191;-81
2021/01/06 08:46:28;;;;;;;48.00;26.30;;;;;;;2.97;87.49;100326.41;1699411;81;25904;-82
2021/01/06 08:49:27;;;;;;;53.25;31.35;;;;;;;3.01;87.49;100326.46;1740792;81;27027;-82
2021/01/06 08:52:18;;;;;;;47.53;28.23;;;;;;;3.04;87.41;100323.51;1692726;81;26111;-81
2021/01/06 08:55:00;;;;;;;43.30;23.32;;;;;;;3.02;87.31;100324.98;1669330;83;27869;-81
2021/01/06 08:57:38;;;;;;;42.40;22.45;;;;;;;3.05;87.40;100327.84;1727061;81;25884;-82
2021/01/06 09:00:26;;;;;;;42.00;21.48;;;;;;;3.06;87.22;100330.33;1748870;80;25765;-82
2021/01/06 09:02:57;;;;;;;42.80;22.37;;;;;;;3.07;87.19;100333.33;1711180;81;27574;-82
2021/01/06 09:05:51;;;;;;;;;;;;;;;3.08;87.23;100327.53;1725646;82;25895;-81
2021/01/06 09:08:39;;;;;;;41.92;22.27;;;;;;;3.10;87.18;100325.59;1755430;81;25897;-81
2021/01/06 09:11:32;;;;;;;41.13;22.62;;;;;;;3.10;87.18;100321.63;1735879;81;25840;-81
2021/01/06 09:14:13;;;;;;;45.78;23.42;;;;;;;3.13;87.27;100331.91;1744067;81;25844;-81
2021/01/06 09:16:52;;;;;;;43.08;26.40;;;;;;;3.14;87.24;100334.39;1695252;81;27359;-81
2021/01/06 09:19:49;;;;;;;46.30;23.00;;;;;;;3.14;87.18;100326.45;1732792;81;25932;-81
2021/01/06 09:22:18;;;;;;;43.58;23.35;;;;;;;3.19;87.25;100330.50;1742993;81;25395;-82
2021/01/06 09:24:47;;;;;;;44.55;23.70;;;;;;;3.23;87.32;100324.75;1741479;81;25830;-81
2021/01/06 09:27:42;;;;;;;45.40;24.15;;;;;;;3.25;87.24;100328.08;1745894;81;25992;-82
2021/01/06 09:30:24;;;;;;;102.50;57.53;;;;;;;3.29;87.32;100325.51;1733618;81;27413;-81
2021/01/06 09:32:56;;;;;;;79.10;44.63;;;;;;;3.31;87.14;100325.35;1726569;82;25762;-81
2021/01/06 09:35:32;;;;;;;55.58;31.20;;;;;;;3.29;86.91;100324.19;1719244;81;25891;-81
2021/01/06 09:38:30;;;;;;;49.25;27.45;;;;;;;3.27;86.99;100320.02;1748493;81;26177;-82
2021/01/06 09:41:06;;;;;;;51.28;24.87;;;;;;;3.30;87.02;100323.19;1725722;81;25371;-82
2021/01/06 09:44:00;;;;;;;50.33;25.55;;;;;;;3.33;87.01;100328.20;1721519;81;27782;-82
2021/01/06 09:47:04;;;;;;;55.80;26.37;;;;;;;3.33;86.80;100329.53;1722879;82;25846;-82
2021/01/06 09:49:39;;;;;;;54.85;26.82;;;;;;;3.36;86.83;100326.56;1730292;82;25925;-82
2021/01/06 09:52:29;;;;;;;48.15;27.22;;;;;;;3.40;87.08;100319.99;1725740;82;25948;-82
2021/01/06 09:54:58;;;;;;;51.98;25.43;;;;;;;3.45;87.11;100315.09;1754417;81;25563;-82
2021/01/06 09:57:28;;;;;;;57.15;27.32;;;;;;;3.49;86.88;100315.63;1742159;81;27635;-81
2021/01/06 10:00:27;;;;;;;52.57;26.43;;;;;;;3.50;86.89;100318.14;1737184;81;25806;-81
2021/01/06 10:02:56;;;;;;;67.92;31.82;;;;;;;3.53;86.95;100320.48;1722016;82;26017;-81
2021/01/06 10:05:55;;;;;;;53.63;25.67;;;;;;;3.58;86.85;100324.01;1702866;81;26108;-81
2021/01/06 10:08:39;;;;;;;45.48;22.80;;;;;;;3.61;86.88;100323.23;1696714;82;26252;-81
2021/01/06 10:11:12;;;;;;;44.65;25.15;;;;;;;3.66;86.88;100325.41;1710894;82;27627;-81
2021/01/06 10:13:54;;;;;;;44.42;25.20;;;;;;;3.67;86.60;100325.77;1717785;81;25877;-81
2021/01/06 10:16:44;;;;;;;47.85;28.42;;;;;;;3.71;86.45;100322.67;1866623;76;25853;-82
2021/01/06 10:19:39;;;;;;;42.23;23.83;;;;;;;3.66;86.41;100328.06;1773427;78;26258;-81
2021/01/06 10:22:30;;;;;;;36.98;19.98;;;;;;;3.65;86.34;100327.73;1769613;80;27322;-80
2021/01/06 10:25:35;;;;;;;43.98;24.12;;;;;;;3.64;86.13;100318.11;1805447;78;25823;-83
2021/01/06 10:28:28;;;;;;;37.17;22.67;;;;;;;3.64;86.31;100318.11;1772962;78;26500;-82
2021/01/06 10:31:13;;;;;;;39.08;21.23;;;;;;;3.68;86.27;100320.80;1808258;78;26359;-82
2021/01/06 10:34:08;;;;;;;42.60;23.85;;;;;;;3.69;86.00;100318.02;1788426;78;25833;-83
2021/01/06 10:36:56;;;;;;;39.30;20.97;;;;;;;3.68;86.00;100318.98;1805220;78;27592;-82
2021/01/06 10:39:44;;;;;;;39.42;22.85;;;;;;;3.68;86.03;100312.37;1806375;78;25795;-82
2021/01/06 10:42:25;;;;;;;43.42;22.67;;;;;;;3.71;86.14;100312.08;1773125;78;25750;-81
2021/01/06 10:45:12;;;;;;;38.95;21.80;;;;;;;3.73;86.13;100304.81;1778938;78;25961;-81
2021/01/06 10:47:47;;;;;;;41.68;22.75;;;;;;;3.78;86.02;100306.53;1809797;78;26075;-81
2021/01/06 10:50:32;;;;;;;39.42;21.70;;;;;;;3.80;85.94;100298.42;1776726;78;28481;-81
2021/01/06 10:53:25;;;;;;;32.95;20.82;;;;;;;3.80;85.89;100299.27;1789275;78;26155;-81
2021/01/06 10:56:08;;;;;;;44.10;24.55;;;;;;;3.82;85.91;100299.95;1784707;77;26319;-83
2021/01/06 10:58:53;;;;;;;104.23;51.25;;;;;;;3.83;85.81;100298.11;1777177;78;25383;-83
2021/01/06 11:01:59;;;;;;;46.00;25.95;;;;;;;3.86;85.78;100288.06;1798062;77;25879;-83
2021/01/06 11:04:42;;;;;;;38.33;20.97;;;;;;;3.86;85.69;100292.03;1733208;77;29053;-84
2021/01/06 11:07:33;;;;;;;35.92;20.92;;;;;;;3.87;85.54;100295.01;1757030;78;25986;-83
2021/01/06 11:10:16;;;;;;;;;;;;;;;3.86;85.54;100296.49;1786079;78;25843;-82
2021/01/06 11:12:58;;;;;;;35.08;19.10;;;;;;;3.84;85.47;100300.63;1816447;78;25690;-82
2021/01/06 11:15:51;;;;;;;34.43;19.73;;;;;;;3.79;85.35;100301.56;1811775;78;25721;-82
2021/01/06 11:18:30;;;;;;;36.13;18.75;;;;;;;3.80;85.56;100299.75;1773550;78;28042;-81
2021/01/06 11:21:22;;;;;;;33.53;18.35;;;;;;;3.82;85.47;100293.80;1748498;78;25817;-82
2021/01/06 11:23:59;;;;;;;31.15;16.48;;;;;;;3.82;85.51;100293.80;1797876;78;25661;-82
2021/01/06 11:26:46;;;;;;;26.85;12.73;;;;;;;3.80;85.03;100279.88;1781835;78;25759;-83
2021/01/06 11:29:21;;;;;;;24.67;11.63;;;;;;;3.81;84.84;100288.16;1787317;78;25948;-82
2021/01/06 11:32:25;;;;;;;20.60;9.93;;;;;;;3.81;84.50;100278.88;1785913;78;27669;-83
2021/01/06 11:34:57;;;;;;;20.00;11.25;;;;;;;3.81;84.19;100274.91;1805715;78;26377;-82
2021/01/06 11:37:33;;;;;;;20.72;11.12;;;;;;;3.82;84.02;100273.94;1809484;78;25381;-82
2021/01/06 11:40:01;;;;;;;22.13;12.07;;;;;;;3.80;84.15;100271.94;1775093;78;26139;-82
2021/01/06 11:43:04;;;;;;;26.10;14.43;;;;;;;3.81;84.22;100265.15;1762698;78;26090;-82
2021/01/06 11:45:37;;;;;;;25.62;15.70;;;;;;;3.82;84.05;100264.19;1809876;78;27519;-82
2021/01/06 11:48:10;;;;;;;26.73;13.60;;;;;;;3.82;84.24;100263.34;1786161;78;25652;-82
2021/01/06 11:50:48;;;;;;;32.70;16.70;;;;;;;3.82;84.14;100259.37;1765751;78;25810;-82
2021/01/06 11:53:29;;;;;;;22.75;13.32;;;;;;;3.82;84.08;100264.67;1754415;78;25912;-83
2021/01/06 11:56:26;;;;;;;23.20;12.95;;;;;;;3.76;83.82;100259.98;1795654;78;25817;-83
2021/01/06 11:59:23;;;;;;;28.87;17.50;;;;;;;3.75;83.88;100264.92;1763770;78;28431;-83
2021/01/06 12:02:18;;;;;;;25.15;16.37;;;;;;;3.71;83.47;100273.67;1785639;78;25847;-82
2021/01/06 12:05:16;;;;;;;25.72;14.73;;;;;;;3.65;83.63;100263.69;1756446;78;25960;-82
2021/01/06 12:08:09;;;;;;;23.10;13.88;;;;;;;3.65;83.61;100265.50;1815682;78;25843;-82
2021/01/06 12:10:54;;;;;;;21.62;14.38;;;;;;;3.63;83.58;100260.84;1801179;78;25892;-82
2021/01/06 12:14:02;;;;;;;24.57;14.30;;;;;;;3.63;83.48;100258.20;1779538;78;27313;-82
2021/01/06 12:17:09;;;;;;;24.70;14.23;;;;;;;3.61;83.53;100264.98;1769267;78;26450;-82
2021/01/06 12:20:08;;;;;;;27.75;15.98;;;;;;;3.59;83.44;100264.78;1798376;78;25951;-82
2021/01/06 12:22:38;;;;;;;31.82;17.87;;;;;;;3.55;83.58;100262.91;1778104;78;25914;-82
2021/01/06 12:25:29;;;;;;;29.23;16.02;;;;;;;3.56;83.68;100254.47;1806597;78;25876;-82
2021/01/06 12:28:16;;;;;;;21.95;13.85;;;;;;;3.54;83.66;100266.55;1796288;78;27692;-82